Bramham, United Kingdom
Current Conditions -  °F | °C
As of 10:20 AM on Friday 26 Dec 2014 (Local Time) from EGNM Reporting Station
Scattered Clouds Scattered Clouds  
Wind Chill: 33°   Ceiling: Unl
Heat Index: 37°   Visibility: 6mi
Dew Point: 37°   Wind: 6mph
Humidity: 100%   Direction: 220°SW
Pressure: 30.27"   Gusts: NA
Location:  53.88°N, 1.35°W
Report Text: EGNM 261020Z 22005KT 9999 FEW017 SCT035 03/03 Q1025
Loading
Personal Weather Stations






























Interactive Weather Map New forecast layout! Learn more

10-Day Weather Forecast

Advertisements
Track Severe Weather on mobile